sensor_id;sensor_type;location;lat;lon;timestamp;temperature;humidity
31387;DHT22;69978;50.096;8.448;2024-03-23T00:52:22;10.40;99.90
31387;DHT22;69978;50.096;8.448;2024-03-23T00:54:47;10.40;99.90
31387;DHT22;69978;50.096;8.448;2024-03-23T00:57:13;10.50;99.90
31387;DHT22;69978;50.096;8.448;2024-03-23T00:59:38;10.50;99.90
31387;DHT22;69978;50.096;8.448;2024-03-23T01:02:04;10.50;99.90
31387;DHT22;69978;50.096;8.448;2024-03-23T01:04:29;10.60;99.90
31387;DHT22;69978;50.096;8.448;2024-03-23T01:06:55;10.60;99.90
31387;DHT22;69978;50.096;8.448;2024-03-23T01:09:20;10.60;99.90
31387;DHT22;69978;50.096;8.448;2024-03-23T01:11:48;10.60;99.90
31387;DHT22;69978;50.096;8.448;2024-03-23T01:14:14;10.70;99.90
31387;DHT22;69978;50.096;8.448;2024-03-23T01:16:39;10.70;99.90
31387;DHT22;69978;50.096;8.448;2024-03-23T01:19:05;10.70;99.90
31387;DHT22;69978;50.096;8.448;2024-03-23T01:21:31;10.70;99.90
31387;DHT22;69978;50.096;8.448;2024-03-23T01:23:57;10.80;99.90
31387;DHT22;69978;50.096;8.448;2024-03-23T01:26:22;10.80;99.90
31387;DHT22;69978;50.096;8.448;2024-03-23T01:28:48;10.80;99.90
31387;DHT22;69978;50.096;8.448;2024-03-23T01:31:13;10.80;99.90
31387;DHT22;69978;50.096;8.448;2024-03-23T01:33:40;10.80;99.90
31387;DHT22;69978;50.096;8.448;2024-03-23T01:36:06;10.70;99.90
31387;DHT22;69978;50.096;8.448;2024-03-23T01:38:31;10.70;99.90
31387;DHT22;69978;50.096;8.448;2024-03-23T01:40:57;10.70;99.90
31387;DHT22;69978;50.096;8.448;2024-03-23T01:43:23;10.70;99.90
31387;DHT22;69978;50.096;8.448;2024-03-23T01:45:48;10.70;99.90
31387;DHT22;69978;50.096;8.448;2024-03-23T01:48:14;10.60;99.90
31387;DHT22;69978;50.096;8.448;2024-03-23T01:50:40;10.60;99.90
31387;DHT22;69978;50.096;8.448;2024-03-23T01:53:05;10.60;99.90
31387;DHT22;69978;50.096;8.448;2024-03-23T01:55:34;10.60;99.90
31387;DHT22;69978;50.096;8.448;2024-03-23T01:58:00;10.60;99.90
31387;DHT22;69978;50.096;8.448;2024-03-23T02:00:26;10.60;99.90
31387;DHT22;69978;50.096;8.448;2024-03-23T02:02:53;10.60;99.90
31387;DHT22;69978;50.096;8.448;2024-03-23T02:05:19;10.50;99.90
31387;DHT22;69978;50.096;8.448;2024-03-23T02:07:44;10.60;99.90
31387;DHT22;69978;50.096;8.448;2024-03-23T02:10:10;10.60;99.90
31387;DHT22;69978;50.096;8.448;2024-03-23T02:12:39;10.60;99.90
31387;DHT22;69978;50.096;8.448;2024-03-23T02:15:05;10.60;99.90
31387;DHT22;69978;50.096;8.448;2024-03-23T02:17:33;10.60;99.90
31387;DHT22;69978;50.096;8.448;2024-03-23T02:19:59;10.60;99.90
31387;DHT22;69978;50.096;8.448;2024-03-23T02:22:25;10.50;99.90
31387;DHT22;69978;50.096;8.448;2024-03-23T02:24:51;10.50;99.90
31387;DHT22;69978;50.096;8.448;2024-03-23T02:27:16;10.50;99.90
31387;DHT22;69978;50.096;8.448;2024-03-23T02:29:45;10.50;99.90
31387;DHT22;69978;50.096;8.448;2024-03-23T02:32:10;10.50;99.90
31387;DHT22;69978;50.096;8.448;2024-03-23T02:34:36;10.50;99.90
31387;DHT22;69978;50.096;8.448;2024-03-23T02:37:02;10.50;99.90
31387;DHT22;69978;50.096;8.448;2024-03-23T02:39:27;10.50;99.90
31387;DHT22;69978;50.096;8.448;2024-03-23T02:41:53;10.50;99.90
31387;DHT22;69978;50.096;8.448;2024-03-23T02:44:18;10.50;99.90
31387;DHT22;69978;50.096;8.448;2024-03-23T02:46:44;10.50;99.90
31387;DHT22;69978;50.096;8.448;2024-03-23T02:49:09;10.50;99.90
31387;DHT22;69978;50.096;8.448;2024-03-23T02:51:35;10.50;99.90
31387;DHT22;69978;50.096;8.448;2024-03-23T02:54:01;10.50;99.90
31387;DHT22;69978;50.096;8.448;2024-03-23T02:56:26;10.50;99.90
31387;DHT22;69978;50.096;8.448;2024-03-23T02:58:52;10.50;99.90
31387;DHT22;69978;50.096;8.448;2024-03-23T03:01:17;10.60;99.90
31387;DHT22;69978;50.096;8.448;2024-03-23T03:03:43;10.60;99.90
31387;DHT22;69978;50.096;8.448;2024-03-23T03:06:10;10.60;99.90
31387;DHT22;69978;50.096;8.448;2024-03-23T03:08:35;10.60;99.90
31387;DHT22;69978;50.096;8.448;2024-03-23T03:11:01;10.60;99.90
31387;DHT22;69978;50.096;8.448;2024-03-23T03:13:27;10.70;99.90
31387;DHT22;69978;50.096;8.448;2024-03-23T03:15:53;10.70;99.90
31387;DHT22;69978;50.096;8.448;2024-03-23T03:18:18;10.80;99.90
31387;DHT22;69978;50.096;8.448;2024-03-23T03:20:44;10.80;99.90
31387;DHT22;69978;50.096;8.448;2024-03-23T03:23:11;10.80;99.90
31387;DHT22;69978;50.096;8.448;2024-03-23T03:25:36;10.80;99.90
31387;DHT22;69978;50.096;8.448;2024-03-23T03:28:03;10.80;99.90
31387;DHT22;69978;50.096;8.448;2024-03-23T03:30:29;10.70;99.90
31387;DHT22;69978;50.096;8.448;2024-03-23T03:32:55;10.70;99.90
31387;DHT22;69978;50.096;8.448;2024-03-23T03:35:20;10.70;99.90
31387;DHT22;69978;50.096;8.448;2024-03-23T03:37:46;10.70;99.90
31387;DHT22;69978;50.096;8.448;2024-03-23T03:40:12;10.70;99.90
31387;DHT22;69978;50.096;8.448;2024-03-23T03:42:40;10.70;99.90
31387;DHT22;69978;50.096;8.448;2024-03-23T03:45:06;10.70;99.90
31387;DHT22;69978;50.096;8.448;2024-03-23T03:47:32;10.70;99.90
31387;DHT22;69978;50.096;8.448;2024-03-23T03:49:57;10.70;99.90
31387;DHT22;69978;50.096;8.448;2024-03-23T03:52:23;10.80;99.90
31387;DHT22;69978;50.096;8.448;2024-03-23T03:54:49;10.80;99.90
31387;DHT22;69978;50.096;8.448;2024-03-23T03:57:14;10.70;99.90
31387;DHT22;69978;50.096;8.448;2024-03-23T03:59:40;10.70;99.90
31387;DHT22;69978;50.096;8.448;2024-03-23T04:02:05;10.60;99.90
31387;DHT22;69978;50.096;8.448;2024-03-23T04:04:31;10.50;99.90
31387;DHT22;69978;50.096;8.448;2024-03-23T04:07:03;10.30;99.90
31387;DHT22;69978;50.096;8.448;2024-03-23T04:09:30;10.10;99.90
31387;DHT22;69978;50.096;8.448;2024-03-23T04:11:56;10.10;99.90
31387;DHT22;69978;50.096;8.448;2024-03-23T04:14:21;9.90;99.90
31387;DHT22;69978;50.096;8.448;2024-03-23T04:16:47;9.80;99.90
31387;DHT22;69978;50.096;8.448;2024-03-23T04:19:13;9.70;99.90
31387;DHT22;69978;50.096;8.448;2024-03-23T04:21:38;9.60;99.90
31387;DHT22;69978;50.096;8.448;2024-03-23T04:24:04;9.50;99.90
31387;DHT22;69978;50.096;8.448;2024-03-23T04:26:30;9.50;99.90
31387;DHT22;69978;50.096;8.448;2024-03-23T04:28:56;9.40;99.90
31387;DHT22;69978;50.096;8.448;2024-03-23T04:31:21;9.40;99.90
31387;DHT22;69978;50.096;8.448;2024-03-23T04:33:47;9.30;99.90
31387;DHT22;69978;50.096;8.448;2024-03-23T04:36:12;9.20;99.90
31387;DHT22;69978;50.096;8.448;2024-03-23T04:38:38;9.10;99.90
31387;DHT22;69978;50.096;8.448;2024-03-23T04:41:04;9.00;99.90
31387;DHT22;69978;50.096;8.448;2024-03-23T04:43:29;9.00;99.90
31387;DHT22;69978;50.096;8.448;2024-03-23T04:45:55;9.00;99.90
31387;DHT22;69978;50.096;8.448;2024-03-23T04:48:22;9.00;99.90
31387;DHT22;69978;50.096;8.448;2024-03-23T04:50:48;8.90;99.90
31387;DHT22;69978;50.096;8.448;2024-03-23T04:53:15;8.90;99.90
31387;DHT22;69978;50.096;8.448;2024-03-23T04:55:42;8.80;99.90
31387;DHT22;69978;50.096;8.448;2024-03-23T04:58:07;8.70;99.90
31387;DHT22;69978;50.096;8.448;2024-03-23T05:00:33;8.70;99.90
31387;DHT22;69978;50.096;8.448;2024-03-23T05:02:58;8.60;99.90
31387;DHT22;69978;50.096;8.448;2024-03-23T05:05:24;8.60;99.90
31387;DHT22;69978;50.096;8.448;2024-03-23T05:07:49;8.60;99.90
31387;DHT22;69978;50.096;8.448;2024-03-23T05:10:15;8.60;99.90
31387;DHT22;69978;50.096;8.448;2024-03-23T05:12:41;8.60;99.90
31387;DHT22;69978;50.096;8.448;2024-03-23T05:15:07;8.50;99.90
31387;DHT22;69978;50.096;8.448;2024-03-23T05:17:33;8.50;99.90
31387;DHT22;69978;50.096;8.448;2024-03-23T05:19:59;8.40;99.90
31387;DHT22;69978;50.096;8.448;2024-03-23T05:22:25;8.40;99.90
31387;DHT22;69978;50.096;8.448;2024-03-23T05:24:50;8.40;99.90
31387;DHT22;69978;50.096;8.448;2024-03-23T05:27:16;8.40;99.90
31387;DHT22;69978;50.096;8.448;2024-03-23T05:29:42;8.40;99.90
31387;DHT22;69978;50.096;8.448;2024-03-23T05:32:07;8.30;99.90
31387;DHT22;69978;50.096;8.448;2024-03-23T05:34:33;8.30;99.90
31387;DHT22;69978;50.096;8.448;2024-03-23T05:36:59;8.30;99.90
31387;DHT22;69978;50.096;8.448;2024-03-23T05:39:24;8.20;99.90
31387;DHT22;69978;50.096;8.448;2024-03-23T05:41:50;8.20;99.90
31387;DHT22;69978;50.096;8.448;2024-03-23T05:44:16;8.10;99.90
31387;DHT22;69978;50.096;8.448;2024-03-23T05:46:42;8.10;99.90
31387;DHT22;69978;50.096;8.448;2024-03-23T05:49:08;8.10;99.90
31387;DHT22;69978;50.096;8.448;2024-03-23T05:51:34;8.00;99.90
31387;DHT22;69978;50.096;8.448;2024-03-23T05:54:02;7.90;99.90
31387;DHT22;69978;50.096;8.448;2024-03-23T05:56:28;7.80;99.90
31387;DHT22;69978;50.096;8.448;2024-03-23T05:58:53;7.70;99.90
31387;DHT22;69978;50.096;8.448;2024-03-23T06:01:19;7.70;99.90
31387;DHT22;69978;50.096;8.448;2024-03-23T06:03:44;7.70;99.90
31387;DHT22;69978;50.096;8.448;2024-03-23T06:06:10;7.60;99.90
31387;DHT22;69978;50.096;8.448;2024-03-23T06:08:38;7.50;99.90
31387;DHT22;69978;50.096;8.448;2024-03-23T06:11:04;7.50;99.90
31387;DHT22;69978;50.096;8.448;2024-03-23T06:13:32;7.50;99.90
31387;DHT22;69978;50.096;8.448;2024-03-23T06:15:57;7.50;99.90
31387;DHT22;69978;50.096;8.448;2024-03-23T06:18:24;7.40;99.90
31387;DHT22;69978;50.096;8.448;2024-03-23T06:20:49;7.40;99.90
31387;DHT22;69978;50.096;8.448;2024-03-23T06:23:15;7.40;99.90
31387;DHT22;69978;50.096;8.448;2024-03-23T06:25:42;7.40;99.90
31387;DHT22;69978;50.096;8.448;2024-03-23T06:28:08;7.50;99.90
31387;DHT22;69978;50.096;8.448;2024-03-23T06:30:34;7.40;99.90
31387;DHT22;69978;50.096;8.448;2024-03-23T06:32:59;7.40;99.90
31387;DHT22;69978;50.096;8.448;2024-03-23T06:35:25;7.40;99.90
31387;DHT22;69978;50.096;8.448;2024-03-23T06:37:50;7.40;99.90
31387;DHT22;69978;50.096;8.448;2024-03-23T06:40:16;7.40;99.90
31387;DHT22;69978;50.096;8.448;2024-03-23T06:42:41;7.30;99.90
31387;DHT22;69978;50.096;8.448;2024-03-23T06:45:07;7.30;99.90
31387;DHT22;69978;50.096;8.448;2024-03-23T06:47:33;7.20;99.90
31387;DHT22;69978;50.096;8.448;2024-03-23T06:50:03;7.20;99.90
31387;DHT22;69978;50.096;8.448;2024-03-23T06:52:29;7.10;99.90
31387;DHT22;69978;50.096;8.448;2024-03-23T06:54:55;7.10;99.90
31387;DHT22;69978;50.096;8.448;2024-03-23T06:57:21;7.00;99.90
31387;DHT22;69978;50.096;8.448;2024-03-23T06:59:47;7.10;99.90
31387;DHT22;69978;50.096;8.448;2024-03-23T07:02:12;7.10;99.90
31387;DHT22;69978;50.096;8.448;2024-03-23T07:04:38;6.90;99.90
31387;DHT22;69978;50.096;8.448;2024-03-23T07:07:07;6.90;99.90
31387;DHT22;69978;50.096;8.448;2024-03-23T07:09:32;6.90;99.90
31387;DHT22;69978;50.096;8.448;2024-03-23T07:12:00;6.90;99.90
31387;DHT22;69978;50.096;8.448;2024-03-23T07:14:26;6.90;99.90
31387;DHT22;69978;50.096;8.448;2024-03-23T07:16:51;7.00;99.90
31387;DHT22;69978;50.096;8.448;2024-03-23T07:19:17;7.00;99.90
31387;DHT22;69978;50.096;8.448;2024-03-23T07:21:44;7.10;99.90
31387;DHT22;69978;50.096;8.448;2024-03-23T07:24:10;7.10;99.90
31387;DHT22;69978;50.096;8.448;2024-03-23T07:26:36;7.10;99.90
31387;DHT22;69978;50.096;8.448;2024-03-23T07:29:01;7.20;99.90
31387;DHT22;69978;50.096;8.448;2024-03-23T07:31:27;7.20;99.90
31387;DHT22;69978;50.096;8.448;2024-03-23T07:33:53;7.10;99.90
31387;DHT22;69978;50.096;8.448;2024-03-23T07:36:19;7.20;99.90
31387;DHT22;69978;50.096;8.448;2024-03-23T07:38:44;7.20;99.90
31387;DHT22;69978;50.096;8.448;2024-03-23T07:41:18;7.20;99.90
31387;DHT22;69978;50.096;8.448;2024-03-23T07:43:45;7.20;99.90
31387;DHT22;69978;50.096;8.448;2024-03-23T07:46:11;7.30;99.90
31387;DHT22;69978;50.096;8.448;2024-03-23T07:48:37;7.30;99.90
31387;DHT22;69978;50.096;8.448;2024-03-23T07:51:04;7.30;99.90
31387;DHT22;69978;50.096;8.448;2024-03-23T07:53:31;7.40;99.90
31387;DHT22;69978;50.096;8.448;2024-03-23T07:55:59;7.40;99.90
31387;DHT22;69978;50.096;8.448;2024-03-23T07:58:28;7.50;99.90
31387;DHT22;69978;50.096;8.448;2024-03-23T08:01:07;7.50;99.90
31387;DHT22;69978;50.096;8.448;2024-03-23T08:03:40;7.50;99.90
31387;DHT22;69978;50.096;8.448;2024-03-23T08:06:15;7.60;99.90
31387;DHT22;69978;50.096;8.448;2024-03-23T08:08:42;7.60;99.90
31387;DHT22;69978;50.096;8.448;2024-03-23T08:11:08;7.60;99.90
31387;DHT22;69978;50.096;8.448;2024-03-23T08:13:34;7.70;99.90
31387;DHT22;69978;50.096;8.448;2024-03-23T08:16:01;7.80;99.90
31387;DHT22;69978;50.096;8.448;2024-03-23T08:18:31;7.80;99.90
31387;DHT22;69978;50.096;8.448;2024-03-23T08:21:04;7.90;99.90
31387;DHT22;69978;50.096;8.448;2024-03-23T08:23:32;8.00;99.90
31387;DHT22;69978;50.096;8.448;2024-03-23T08:26:05;8.00;99.90
31387;DHT22;69978;50.096;8.448;2024-03-23T08:28:32;8.00;99.90
31387;DHT22;69978;50.096;8.448;2024-03-23T08:31:03;8.00;99.90
31387;DHT22;69978;50.096;8.448;2024-03-23T08:33:29;8.00;99.90
31387;DHT22;69978;50.096;8.448;2024-03-23T08:35:56;8.00;99.90
31387;DHT22;69978;50.096;8.448;2024-03-23T08:38:26;8.10;99.90
31387;DHT22;69978;50.096;8.448;2024-03-23T08:40:58;8.30;99.90
31387;DHT22;69978;50.096;8.448;2024-03-23T08:43:24;8.30;99.90
31387;DHT22;69978;50.096;8.448;2024-03-23T08:45:50;8.50;99.90
31387;DHT22;69978;50.096;8.448;2024-03-23T08:48:16;8.60;99.90
31387;DHT22;69978;50.096;8.448;2024-03-23T08:50:41;8.60;99.90
31387;DHT22;69978;50.096;8.448;2024-03-23T08:53:08;8.60;99.90
31387;DHT22;69978;50.096;8.448;2024-03-23T08:55:33;8.60;99.90
31387;DHT22;69978;50.096;8.448;2024-03-23T08:57:59;8.60;99.90
31387;DHT22;69978;50.096;8.448;2024-03-23T09:00:26;8.70;99.90
31387;DHT22;69978;50.096;8.448;2024-03-23T09:02:51;8.90;99.90
31387;DHT22;69978;50.096;8.448;2024-03-23T09:05:17;9.00;99.90
31387;DHT22;69978;50.096;8.448;2024-03-23T09:07:42;9.10;99.90
31387;DHT22;69978;50.096;8.448;2024-03-23T09:10:08;9.10;99.90
31387;DHT22;69978;50.096;8.448;2024-03-23T09:12:34;9.10;99.90
31387;DHT22;69978;50.096;8.448;2024-03-23T09:14:59;9.10;99.90
31387;DHT22;69978;50.096;8.448;2024-03-23T09:17:25;9.20;99.90
31387;DHT22;69978;50.096;8.448;2024-03-23T09:19:50;9.40;99.90
31387;DHT22;69978;50.096;8.448;2024-03-23T09:22:16;9.70;99.90
31387;DHT22;69978;50.096;8.448;2024-03-23T09:24:41;10.10;99.90
31387;DHT22;69978;50.096;8.448;2024-03-23T09:27:10;10.60;99.90
31387;DHT22;69978;50.096;8.448;2024-03-23T09:29:35;10.90;99.90
31387;DHT22;69978;50.096;8.448;2024-03-23T09:32:01;11.20;99.90
31387;DHT22;69978;50.096;8.448;2024-03-23T09:34:27;11.60;99.90
31387;DHT22;69978;50.096;8.448;2024-03-23T09:36:52;11.60;99.90
31387;DHT22;69978;50.096;8.448;2024-03-23T09:39:18;11.70;99.90
31387;DHT22;69978;50.096;8.448;2024-03-23T09:41:45;11.60;99.90
31387;DHT22;69978;50.096;8.448;2024-03-23T09:44:10;11.90;99.90
31387;DHT22;69978;50.096;8.448;2024-03-23T09:46:36;12.00;99.90
31387;DHT22;69978;50.096;8.448;2024-03-23T09:49:03;12.00;99.90
31387;DHT22;69978;50.096;8.448;2024-03-23T09:51:31;11.70;99.90
31387;DHT22;69978;50.096;8.448;2024-03-23T09:53:57;11.60;99.90
31387;DHT22;69978;50.096;8.448;2024-03-23T09:56:22;11.80;99.90
31387;DHT22;69978;50.096;8.448;2024-03-23T09:58:49;11.70;99.90
31387;DHT22;69978;50.096;8.448;2024-03-23T10:01:15;11.60;99.90
31387;DHT22;69978;50.096;8.448;2024-03-23T10:03:44;12.10;99.90
31387;DHT22;69978;50.096;8.448;2024-03-23T10:06:10;12.40;99.90
31387;DHT22;69978;50.096;8.448;2024-03-23T10:08:35;12.90;99.90
31387;DHT22;69978;50.096;8.448;2024-03-23T10:11:13;12.90;99.90
31387;DHT22;69978;50.096;8.448;2024-03-23T10:13:42;12.60;99.90
31387;DHT22;69978;50.096;8.448;2024-03-23T10:16:09;12.10;99.90
31387;DHT22;69978;50.096;8.448;2024-03-23T10:18:39;12.00;99.90
31387;DHT22;69978;50.096;8.448;2024-03-23T10:21:09;12.70;99.90
31387;DHT22;69978;50.096;8.448;2024-03-23T10:23:40;13.30;99.90
31387;DHT22;69978;50.096;8.448;2024-03-23T10:26:14;13.20;99.90
31387;DHT22;69978;50.096;8.448;2024-03-23T10:28:59;12.80;99.90
31387;DHT22;69978;50.096;8.448;2024-03-23T10:31:33;12.30;99.90
31387;DHT22;69978;50.096;8.448;2024-03-23T10:33:59;12.00;99.90
31387;DHT22;69978;50.096;8.448;2024-03-23T10:36:27;11.70;99.90
31387;DHT22;69978;50.096;8.448;2024-03-23T10:38:54;11.50;99.90
31387;DHT22;69978;50.096;8.448;2024-03-23T10:41:20;11.40;99.90
31387;DHT22;69978;50.096;8.448;2024-03-23T10:43:47;11.10;99.90
31387;DHT22;69978;50.096;8.448;2024-03-23T10:46:13;10.50;99.90
31387;DHT22;69978;50.096;8.448;2024-03-23T10:48:39;10.00;99.90
31387;DHT22;69978;50.096;8.448;2024-03-23T10:51:10;9.80;99.90
31387;DHT22;69978;50.096;8.448;2024-03-23T10:53:36;9.70;99.90
31387;DHT22;69978;50.096;8.448;2024-03-23T10:56:05;9.60;99.90
31387;DHT22;69978;50.096;8.448;2024-03-23T10:58:37;9.50;99.90
31387;DHT22;69978;50.096;8.448;2024-03-23T11:01:03;9.40;99.90
31387;DHT22;69978;50.096;8.448;2024-03-23T11:03:35;9.20;99.90
31387;DHT22;69978;50.096;8.448;2024-03-23T11:06:05;9.20;99.90
31387;DHT22;69978;50.096;8.448;2024-03-23T11:08:40;9.10;99.90
31387;DHT22;69978;50.096;8.448;2024-03-23T11:13:49;8.70;99.90
31387;DHT22;69978;50.096;8.448;2024-03-23T11:16:28;8.60;99.90
31387;DHT22;69978;50.096;8.448;2024-03-23T11:19:37;8.60;99.90
31387;DHT22;69978;50.096;8.448;2024-03-23T11:22:05;8.50;99.90
31387;DHT22;69978;50.096;8.448;2024-03-23T11:24:34;8.30;99.90
31387;DHT22;69978;50.096;8.448;2024-03-23T11:27:00;8.30;99.90
31387;DHT22;69978;50.096;8.448;2024-03-23T11:29:32;8.30;99.90
31387;DHT22;69978;50.096;8.448;2024-03-23T11:31:58;8.20;99.90
31387;DHT22;69978;50.096;8.448;2024-03-23T11:34:24;8.10;99.90
31387;DHT22;69978;50.096;8.448;2024-03-23T11:36:50;8.00;99.90
31387;DHT22;69978;50.096;8.448;2024-03-23T11:39:19;7.90;99.90
31387;DHT22;69978;50.096;8.448;2024-03-23T11:41:52;7.90;99.90
31387;DHT22;69978;50.096;8.448;2024-03-23T11:44:21;8.00;99.90
31387;DHT22;69978;50.096;8.448;2024-03-23T11:46:50;8.00;99.90
31387;DHT22;69978;50.096;8.448;2024-03-23T11:49:26;8.20;99.90
31387;DHT22;69978;50.096;8.448;2024-03-23T11:51:54;8.50;99.90
31387;DHT22;69978;50.096;8.448;2024-03-23T11:54:24;8.90;99.90
31387;DHT22;69978;50.096;8.448;2024-03-23T11:56:54;9.10;99.90
31387;DHT22;69978;50.096;8.448;2024-03-23T11:59:36;9.40;99.90
31387;DHT22;69978;50.096;8.448;2024-03-23T12:02:21;9.70;99.90
31387;DHT22;69978;50.096;8.448;2024-03-23T12:04:47;10.10;99.90
31387;DHT22;69978;50.096;8.448;2024-03-23T12:07:16;10.40;99.90
31387;DHT22;69978;50.096;8.448;2024-03-23T12:10:05;10.70;99.90
31387;DHT22;69978;50.096;8.448;2024-03-23T12:12:34;11.00;99.90
31387;DHT22;69978;50.096;8.448;2024-03-23T12:15:07;11.20;99.90
31387;DHT22;69978;50.096;8.448;2024-03-23T12:17:34;11.20;99.90
31387;DHT22;69978;50.096;8.448;2024-03-23T12:20:04;11.50;99.90
31387;DHT22;69978;50.096;8.448;2024-03-23T12:22:33;11.40;99.90
31387;DHT22;69978;50.096;8.448;2024-03-23T12:25:00;11.50;99.90
31387;DHT22;69978;50.096;8.448;2024-03-23T12:27:26;11.70;99.90
31387;DHT22;69978;50.096;8.448;2024-03-23T12:29:51;12.00;99.90
31387;DHT22;69978;50.096;8.448;2024-03-23T12:32:19;12.10;99.90
31387;DHT22;69978;50.096;8.448;2024-03-23T12:34:45;12.10;99.90
31387;DHT22;69978;50.096;8.448;2024-03-23T12:37:18;12.40;99.90
31387;DHT22;69978;50.096;8.448;2024-03-23T12:39:44;12.70;99.90
31387;DHT22;69978;50.096;8.448;2024-03-23T12:42:11;12.70;99.90
31387;DHT22;69978;50.096;8.448;2024-03-23T12:44:39;12.80;99.90
31387;DHT22;69978;50.096;8.448;2024-03-23T12:47:05;12.90;99.90
31387;DHT22;69978;50.096;8.448;2024-03-23T12:49:30;12.80;99.90
31387;DHT22;69978;50.096;8.448;2024-03-23T12:51:57;12.90;99.90
31387;DHT22;69978;50.096;8.448;2024-03-23T12:54:23;12.90;99.90
31387;DHT22;69978;50.096;8.448;2024-03-23T12:56:49;12.80;99.90
31387;DHT22;69978;50.096;8.448;2024-03-23T12:59:14;12.70;99.90
31387;DHT22;69978;50.096;8.448;2024-03-23T13:01:41;12.50;99.90
31387;DHT22;69978;50.096;8.448;2024-03-23T13:04:07;12.30;99.90
31387;DHT22;69978;50.096;8.448;2024-03-23T13:06:33;12.10;99.90
31387;DHT22;69978;50.096;8.448;2024-03-23T13:09:01;11.80;99.90
31387;DHT22;69978;50.096;8.448;2024-03-23T13:11:27;11.30;99.90
31387;DHT22;69978;50.096;8.448;2024-03-23T13:13:53;10.70;99.90
31387;DHT22;69978;50.096;8.448;2024-03-23T13:16:18;10.30;99.90
31387;DHT22;69978;50.096;8.448;2024-03-23T13:18:44;9.70;99.90
31387;DHT22;69978;50.096;8.448;2024-03-23T13:21:10;9.40;99.90
31387;DHT22;69978;50.096;8.448;2024-03-23T13:23:35;9.30;99.90
31387;DHT22;69978;50.096;8.448;2024-03-23T13:26:03;9.10;99.90
31387;DHT22;69978;50.096;8.448;2024-03-23T13:28:29;9.10;99.90
31387;DHT22;69978;50.096;8.448;2024-03-23T13:30:56;9.20;99.90
31387;DHT22;69978;50.096;8.448;2024-03-23T13:33:30;9.20;99.90
31387;DHT22;69978;50.096;8.448;2024-03-23T13:35:58;9.30;99.90
31387;DHT22;69978;50.096;8.448;2024-03-23T13:38:24;9.50;99.90
31387;DHT22;69978;50.096;8.448;2024-03-23T13:40:54;9.50;99.90
31387;DHT22;69978;50.096;8.448;2024-03-23T13:43:20;9.50;99.90
31387;DHT22;69978;50.096;8.448;2024-03-23T13:45:52;9.50;99.90
31387;DHT22;69978;50.096;8.448;2024-03-23T13:48:20;9.50;99.90
31387;DHT22;69978;50.096;8.448;2024-03-23T13:50:45;9.20;99.90
31387;DHT22;69978;50.096;8.448;2024-03-23T13:53:14;9.20;99.90
31387;DHT22;69978;50.096;8.448;2024-03-23T13:55:46;9.30;99.90
31387;DHT22;69978;50.096;8.448;2024-03-23T13:58:13;9.50;99.90
31387;DHT22;69978;50.096;8.448;2024-03-23T14:00:39;9.60;99.90
31387;DHT22;69978;50.096;8.448;2024-03-23T14:03:04;9.50;99.90
31387;DHT22;69978;50.096;8.448;2024-03-23T14:05:33;9.50;99.90
31387;DHT22;69978;50.096;8.448;2024-03-23T14:07:59;9.50;99.90
31387;DHT22;69978;50.096;8.448;2024-03-23T14:10:25;9.50;99.90
31387;DHT22;69978;50.096;8.448;2024-03-23T14:12:50;9.50;99.90
31387;DHT22;69978;50.096;8.448;2024-03-23T14:15:16;9.50;99.90
31387;DHT22;69978;50.096;8.448;2024-03-23T14:17:41;9.50;99.90
31387;DHT22;69978;50.096;8.448;2024-03-23T14:20:07;9.40;99.90
31387;DHT22;69978;50.096;8.448;2024-03-23T14:22:36;9.40;99.90
31387;DHT22;69978;50.096;8.448;2024-03-23T14:25:02;9.50;99.90
31387;DHT22;69978;50.096;8.448;2024-03-23T14:27:30;9.50;99.90
31387;DHT22;69978;50.096;8.448;2024-03-23T14:29:56;9.60;99.90
31387;DHT22;69978;50.096;8.448;2024-03-23T14:32:22;9.70;99.90
31387;DHT22;69978;50.096;8.448;2024-03-23T14:34:48;9.80;99.90
31387;DHT22;69978;50.096;8.448;2024-03-23T14:37:17;9.80;99.90
31387;DHT22;69978;50.096;8.448;2024-03-23T14:39:43;9.80;99.90
31387;DHT22;69978;50.096;8.448;2024-03-23T14:42:09;9.60;99.90
31387;DHT22;69978;50.096;8.448;2024-03-23T14:44:35;9.60;99.90
31387;DHT22;69978;50.096;8.448;2024-03-23T14:47:00;9.70;99.90
31387;DHT22;69978;50.096;8.448;2024-03-23T14:49:26;9.70;99.90
31387;DHT22;69978;50.096;8.448;2024-03-23T14:51:52;9.70;99.90
31387;DHT22;69978;50.096;8.448;2024-03-23T14:54:20;9.70;99.90
31387;DHT22;69978;50.096;8.448;2024-03-23T14:56:46;9.80;99.90
31387;DHT22;69978;50.096;8.448;2024-03-23T14:59:12;9.80;99.90
31387;DHT22;69978;50.096;8.448;2024-03-23T15:01:38;9.80;99.90
31387;DHT22;69978;50.096;8.448;2024-03-23T15:04:04;9.80;99.90
31387;DHT22;69978;50.096;8.448;2024-03-23T15:06:29;9.70;99.90
31387;DHT22;69978;50.096;8.448;2024-03-23T15:08:55;9.80;99.90
31387;DHT22;69978;50.096;8.448;2024-03-23T15:11:20;9.80;99.90
31387;DHT22;69978;50.096;8.448;2024-03-23T15:13:50;9.80;99.90
31387;DHT22;69978;50.096;8.448;2024-03-23T15:16:18;9.70;99.90
31387;DHT22;69978;50.096;8.448;2024-03-23T15:18:45;9.70;99.90
31387;DHT22;69978;50.096;8.448;2024-03-23T15:21:11;9.80;99.90
31387;DHT22;69978;50.096;8.448;2024-03-23T15:23:37;9.80;99.90
31387;DHT22;69978;50.096;8.448;2024-03-23T15:26:03;9.70;99.90
31387;DHT22;69978;50.096;8.448;2024-03-23T15:28:31;9.80;99.90
31387;DHT22;69978;50.096;8.448;2024-03-23T15:31:09;9.80;99.90
31387;DHT22;69978;50.096;8.448;2024-03-23T15:33:35;9.40;99.90
31387;DHT22;69978;50.096;8.448;2024-03-23T15:36:05;9.00;99.90
31387;DHT22;69978;50.096;8.448;2024-03-23T15:38:33;8.90;99.90
31387;DHT22;69978;50.096;8.448;2024-03-23T15:40:59;8.60;99.90
31387;DHT22;69978;50.096;8.448;2024-03-23T15:43:25;8.60;99.90
31387;DHT22;69978;50.096;8.448;2024-03-23T15:46:01;8.40;99.90
31387;DHT22;69978;50.096;8.448;2024-03-23T15:48:28;8.30;99.90
31387;DHT22;69978;50.096;8.448;2024-03-23T15:50:59;8.30;99.90
31387;DHT22;69978;50.096;8.448;2024-03-23T15:53:25;8.30;99.90
31387;DHT22;69978;50.096;8.448;2024-03-23T15:56:01;8.40;99.90
31387;DHT22;69978;50.096;8.448;2024-03-23T15:58:28;8.30;99.90
31387;DHT22;69978;50.096;8.448;2024-03-23T16:00:58;8.20;99.90
31387;DHT22;69978;50.096;8.448;2024-03-23T16:03:24;8.20;99.90
31387;DHT22;69978;50.096;8.448;2024-03-23T16:06:00;8.20;99.90
31387;DHT22;69978;50.096;8.448;2024-03-23T16:08:26;8.20;99.90
31387;DHT22;69978;50.096;8.448;2024-03-23T16:10:52;8.10;99.90
31387;DHT22;69978;50.096;8.448;2024-03-23T16:13:18;8.00;99.90
31387;DHT22;69978;50.096;8.448;2024-03-23T16:15:44;8.00;99.90
31387;DHT22;69978;50.096;8.448;2024-03-23T16:18:10;8.10;99.90
31387;DHT22;69978;50.096;8.448;2024-03-23T16:20:36;8.20;99.90
31387;DHT22;69978;50.096;8.448;2024-03-23T16:23:02;8.20;99.90
31387;DHT22;69978;50.096;8.448;2024-03-23T16:25:28;8.20;99.90
31387;DHT22;69978;50.096;8.448;2024-03-23T16:27:54;8.20;99.90
31387;DHT22;69978;50.096;8.448;2024-03-23T16:30:20;8.20;99.90
31387;DHT22;69978;50.096;8.448;2024-03-23T16:32:49;8.20;99.90